Terminal Aerodrome Forecast
Issued by NWS Raleigh/Durham, NC

Home | Current Version | Previous Version | Text Only | Print | Product List | Glossary On
Versions: 1 2 3 4 5 6 7 8 9 10 11 12 13 14 15 16 17 18 19 20 21 22 23 24 25 26 27 28 29 30 31 32 33 34 35 36 37 38 39
000
FTUS42 KRAH 281731
TAFRDU
TAF
KRDU 281731Z 2818/2918 16006KT P6SM VCSH SCT035 BKN060
      TEMPO 2818/2821 BKN035
     FM290100 14004KT P6SM SCT100
     FM291100 15004KT P6SM FEW004 FEW050
     FM291600 14005KT P6SM SCT025=

USA.gov is the U.S. government's official web portal to all federal, state and local government web resources and services.